• Join FlightAware (Why Join?)
  • Login
  • US Flag 
09:07PM EDT


 

Airport Tracker/Info


-or-


 

Live Flight TrackerFlight Track Log ✈ AWE1287 ✈ 03-May-2013 ✈ KMHT - KPHL

Flight Track Log - Related Links

Times and Time Zones

All times are in EDT time to prevent confusion due to time zone crossing. See the AWE1287 flight status page for this flight to view local times or setup timezone preferences in your user account.

Time Position Orientation Groundspeed Altitude Reporting Facility
EDT Latitude Longitude Course Direction KTS MPH feet Rate Location/Type
06:53PM 42.9167 -71.4167 275° West 147 169 1,200  Level KA90
06:54PM 42.8653 -71.4714 218° Southwest 184 212 2,800 1,860 Climbing Boston Center
06:55PM 42.9501 -72.1315 270° West  Level FlightAware Approximate
06:55PM 42.9036 -71.5642 299° West 208 239 5,300  Level Boston Center
06:56PM 42.9564 -72.3655 273° West  Level FlightAware Approximate
06:56PM 42.9481 -71.6628 302° West 267 307 8,400  Level Boston Center
06:57PM 42.9660 -72.5994 273° West  Level FlightAware Approximate
06:57PM 42.9550 -71.7878 274° West 291 335 10,800  Level Boston Center
06:58PM 42.9723 -72.8333 275° West  Level FlightAware Approximate
06:58PM 42.9578 -71.9067 272° West 336 387 12,500  Level Boston Center
06:59PM 42.9644 -72.0514 274° West 348 400 14,700 1,980 Climbing Boston Center
07:00PM 42.9669 -72.1792 272° West 369 425 16,500 1,620 Climbing Boston Center
07:01PM 42.9714 -72.3236 272° West 377 434 18,000 1,500 Climbing Boston Center
07:02PM 42.9861 -72.4656 278° West 382 440 19,600 960 Climbing Boston Center
07:03PM 42.9839 -72.6189 269° West 394 453 20,000 180 Climbing Boston Center
07:04PM 42.9814 -72.7806 269° West 394 453 20,000  Level Boston Center
07:05PM 42.9850 -72.9339 272° West 399 459 20,000  Level Boston Center
07:06PM 42.9906 -73.0703 273° West 409 471 20,000  Level Boston Center
07:07PM 42.9939 -73.2236 272° West 409 471 20,000  Level Boston Center
07:08PM 42.9739 -73.3822 260° West 398 458 20,000  Level Boston Center
07:09PM 42.9061 -73.5086 234° Southwest 398 458 20,000  Level Boston Center
07:10PM 42.8381 -73.6378 234° Southwest 414 476 20,000  Level Boston Center
07:11PM 42.7678 -73.7636 233° Southwest 425 489 20,000  Level Boston Center
07:12PM 42.7036 -73.8950 236° Southwest 425 489 20,000  Level Boston Center
07:13PM 42.6394 -74.0261 236° Southwest 430 495 20,000  Level Boston Center
07:14PM 42.5772 -74.1572 237° Southwest 425 489 20,000  Level Boston Center
07:15PM 42.5125 -74.2878 236° Southwest 420 483 20,000  Level Boston Center
07:16PM 42.4497 -74.4181 237° Southwest 420 483 20,000  Level Boston Center
07:17PM 42.3828 -74.5481 235° Southwest 420 483 20,000  Level Boston Center
07:18PM 42.3200 -74.6753 236° Southwest 420 483 20,000 -300 Level Boston Center
07:21PM 42.1767 -74.9489 235° Southwest 410 472 19,000 -300 Descending New York Center
07:22PM 42.0647 -75.0561 215° Southwest 410 472 19,000  Level New York Center
07:23PM 41.9725 -75.1283 210° Southwest 420 483 19,000 -120 Level New York Center
07:24PM 41.8672 -75.2133 211° Southwest 420 483 18,800 -780 Descending New York Center
07:25PM 41.7686 -75.2928 211° Southwest 420 483 17,500 -1,560 Descending New York Center
07:26PM 41.6761 -75.3700 212° Southwest 420 483 15,800 -1,680 Descending New York Center
07:27PM 41.5944 -75.4336 210° Southwest 400 460 14,200 -1,620 Descending New York Center
07:28PM 41.5083 -75.5025 211° Southwest 377 434 12,700 -1,200 Descending New York Center
07:29PM 41.4136 -75.5789 211° Southwest 371 427 11,900 -420 Descending New York Center
07:30PM 41.3361 -75.6394 210° Southwest 365 420 11,900 -420 Level New York Center
07:31PM 41.2403 -75.6906 202° Southwest 356 410 11,100 -1,020 Descending New York Center
07:32PM 41.1489 -75.6894 179° South 341 392 9,900 -660 Descending New York Center
07:33PM 41.0719 -75.6867 178° South 318 366 9,900  Level New York Center
07:34PM 40.9781 -75.6881 181° South 325 374 10,000  Climbing New York Center
07:35PM 40.8739 -75.6861 179° South 338 389 10,000  Level New York Center
07:36PM 40.7844 -75.6822 178° South 338 389 10,000  Level New York Center
07:37PM 40.7014 -75.6244 152° Southeast 331 381 10,000  Level New York Center
07:38PM 40.6308 -75.5672 148° Southeast 331 381 10,000  Level New York Center
07:39PM 40.5519 -75.5072 150° Southeast 338 389 10,000  Level New York Center
07:40PM 40.4711 -75.4472 151° Southeast 314 361 10,000 -720 Level New York Center
07:41PM 40.4019 -75.4042 155° Southeast 294 338 8,600 -1,440 Descending New York Center
07:42PM 40.3386 -75.3672 156° South 282 325 7,200 -1,320 Descending New York Center
07:43PM 40.2556 -75.3617 177° South 271 312 6,000 -600 Descending New York Center
07:44PM 40.1844 -75.3653 182° South 287 330 6,000  Level New York Center
07:45PM 40.1031 -75.3681 181° South 287 330 6,000  Level New York Center
07:45PM 40.0500 -75.3667 179° South 270 311 6,000  Level Philadelphia TRACON
07:47PM 39.9667 -75.3667 180° South 212 244 6,000  Level Philadelphia TRACON
07:48PM 39.9333 -75.4167 229° Southwest 225 259 6,000  Level Philadelphia TRACON
07:49PM 39.9167 -75.5000 255° West 202 232 6,000 -360 Level Philadelphia TRACON
07:50PM 39.9117 -75.5719 265° West 207 238 5,300 -480 Descending New York Center
07:51PM 39.9003 -75.6442 258° West 207 238 5,000 -180 Descending New York Center
07:52PM 39.8728 -75.7019 238° Southwest 196 226 5,000 -420 Level New York Center
07:53PM 39.8167 -75.6500 145° Southeast 167 192 4,000 -420 Descending Philadelphia TRACON
07:54PM 39.8000 -75.6000 113° Southeast 166 191 4,000  Level Philadelphia TRACON
07:56PM 39.8167 -75.5333 72° East 156 180 4,000 -300 Level Philadelphia TRACON
07:56PM 39.8167 -75.4833 90° East 155 178 3,400 -900 Descending Philadelphia TRACON
07:58PM 39.8333 -75.4167 72° East 162 186 2,300 -900 Descending Philadelphia TRACON
07:58PM 39.8333 -75.3833 90° East 159 183 1,600 -900 Descending Philadelphia TRACON